createdAt,value
2019-05-07T00:01:13.941Z,7.30
2019-05-07T00:03:45.548Z,7.30
2019-05-07T00:06:17.751Z,7.40
2019-05-07T00:08:52.139Z,7.30
2019-05-07T00:11:23.414Z,7.30
2019-05-07T00:13:55.311Z,7.20
2019-05-07T00:16:27.106Z,7.00
2019-05-07T00:18:59.126Z,6.90
2019-05-07T00:21:32.672Z,6.80
2019-05-07T00:24:03.897Z,6.70
2019-05-07T00:26:35.463Z,6.60
2019-05-07T00:29:07.124Z,6.50
2019-05-07T00:31:41.969Z,6.50
2019-05-07T00:34:15.874Z,6.50
2019-05-07T00:37:07.049Z,6.50
2019-05-07T00:40:07.224Z,6.60
2019-05-07T00:42:56.513Z,6.60
2019-05-07T00:45:38.400Z,6.60
2019-05-07T00:48:09.986Z,6.60
2019-05-07T00:50:43.647Z,6.60
2019-05-07T00:53:14.925Z,6.60
2019-05-07T00:55:46.716Z,6.60
2019-05-07T00:58:17.728Z,6.70
2019-05-07T01:00:49.311Z,6.80
2019-05-07T01:03:22.233Z,6.90
2019-05-07T01:05:55.183Z,6.90
2019-05-07T01:08:27.355Z,6.90
2019-05-07T01:10:58.971Z,6.90
2019-05-07T01:13:32.310Z,6.90
2019-05-07T01:16:04.245Z,6.90
2019-05-07T01:18:35.610Z,7.00
2019-05-07T01:21:07.257Z,7.00
2019-05-07T01:23:38.820Z,7.00
2019-05-07T01:26:12.451Z,7.00
2019-05-07T01:29:03.313Z,7.10
2019-05-07T01:31:39.211Z,7.20
2019-05-07T01:34:35.256Z,7.20
2019-05-07T01:37:06.610Z,7.20
2019-05-07T01:39:42.054Z,7.20
2019-05-07T01:42:13.361Z,7.20
2019-05-07T01:44:45.123Z,7.20
2019-05-07T01:47:16.849Z,7.20
2019-05-07T01:49:48.763Z,7.20
2019-05-07T01:52:20.006Z,7.20
2019-05-07T01:54:52.831Z,7.20
2019-05-07T01:57:24.486Z,7.30
2019-05-07T01:59:56.223Z,7.20
2019-05-07T02:02:38.388Z,7.20
2019-05-07T02:05:18.532Z,7.20
2019-05-07T02:07:55.015Z,7.20
2019-05-07T02:10:37.974Z,7.20
2019-05-07T02:13:09.317Z,7.10
2019-05-07T02:15:42.849Z,7.10
2019-05-07T02:18:15.691Z,7.10
2019-05-07T02:20:46.674Z,7.00
2019-05-07T02:23:19.426Z,7.00
2019-05-07T02:25:52.675Z,6.90
2019-05-07T02:28:24.304Z,6.90
2019-05-07T02:30:56.111Z,6.80
2019-05-07T02:33:28.005Z,6.70
2019-05-07T02:36:02.423Z,6.60
2019-05-07T02:38:44.182Z,6.50
2019-05-07T02:41:26.841Z,6.50
2019-05-07T02:44:00.134Z,6.40
2019-05-07T02:46:37.200Z,6.30
2019-05-07T02:49:26.680Z,6.20
2019-05-07T02:52:04.256Z,6.20
2019-05-07T02:54:54.088Z,6.10
2019-05-07T02:57:26.457Z,6.10
2019-05-07T02:59:58.078Z,6.00
2019-05-07T03:02:33.006Z,6.00
2019-05-07T03:05:05.189Z,6.00
2019-05-07T03:07:36.488Z,6.00
2019-05-07T03:10:08.102Z,6.10
2019-05-07T03:12:42.798Z,6.10
2019-05-07T03:15:14.057Z,6.00
2019-05-07T03:17:45.717Z,6.00
2019-05-07T03:20:22.934Z,6.00
2019-05-07T03:22:56.035Z,5.90
2019-05-07T03:25:33.897Z,5.90
2019-05-07T03:28:06.141Z,6.00
2019-05-07T03:30:47.466Z,5.90
2019-05-07T03:33:27.010Z,6.00
2019-05-07T03:35:59.051Z,5.90
2019-05-07T03:38:33.308Z,5.90
2019-05-07T03:41:03.984Z,5.90
2019-05-07T03:43:35.062Z,5.90
2019-05-07T03:46:14.064Z,5.90
2019-05-07T03:48:47.279Z,5.90
2019-05-07T03:51:19.157Z,5.90
2019-05-07T03:53:50.139Z,5.90
2019-05-07T03:56:23.666Z,5.90
2019-05-07T03:58:54.991Z,5.90
2019-05-07T04:01:26.722Z,5.90
2019-05-07T04:03:58.602Z,5.90
2019-05-07T04:06:33.247Z,5.90
2019-05-07T04:09:06.357Z,6.00
2019-05-07T04:11:38.271Z,5.90
2019-05-07T04:14:13.461Z,6.00
2019-05-07T04:16:44.138Z,6.10
2019-05-07T04:19:16.450Z,6.10
2019-05-07T04:21:48.571Z,6.10
2019-05-07T04:24:29.453Z,6.10
2019-05-07T04:27:20.038Z,6.10
2019-05-07T04:29:53.156Z,6.10
2019-05-07T04:32:27.229Z,6.20
2019-05-07T04:35:08.470Z,6.30
2019-05-07T04:37:42.789Z,6.40
2019-05-07T04:40:14.155Z,6.40
2019-05-07T04:42:46.032Z,6.40
2019-05-07T04:45:17.358Z,6.50
2019-05-07T04:47:49.560Z,6.60
2019-05-07T04:50:37.809Z,6.60
2019-05-07T04:52:57.063Z,6.70
2019-05-07T04:55:28.600Z,6.70
2019-05-07T04:58:02.736Z,6.80
2019-05-07T05:00:33.717Z,6.80
2019-05-07T05:03:35.562Z,6.90
2019-05-07T05:06:07.063Z,7.00
2019-05-07T05:08:38.944Z,7.10
2019-05-07T05:11:12.596Z,7.20
2019-05-07T05:13:44.849Z,7.30
2019-05-07T05:16:26.657Z,7.40
2019-05-07T05:18:58.440Z,7.70
2019-05-07T05:21:49.214Z,7.90
2019-05-07T05:24:42.260Z,8.00
2019-05-07T05:27:14.144Z,8.20
2019-05-07T05:29:46.023Z,8.20
2019-05-07T05:32:17.589Z,8.10
2019-05-07T05:34:49.534Z,8.00
2019-05-07T05:37:22.636Z,8.00
2019-05-07T05:40:05.647Z,8.00
2019-05-07T05:42:37.227Z,8.60
2019-05-07T05:45:28.978Z,9.20
2019-05-07T05:48:05.449Z,9.60
2019-05-07T05:50:42.305Z,10.10
2019-05-07T05:53:25.110Z,11.30
2019-05-07T05:55:58.099Z,12.70
2019-05-07T05:58:36.952Z,14.30
2019-05-07T06:01:32.088Z,16.00
2019-05-07T06:04:12.458Z,17.70
2019-05-07T06:07:11.334Z,18.80
2019-05-07T06:09:42.319Z,19.10
2019-05-07T06:12:32.771Z,18.40
2019-05-07T06:15:22.207Z,18.10
2019-05-07T06:18:32.745Z,17.70
2019-05-07T06:21:18.505Z,17.00
2019-05-07T06:23:54.825Z,16.70
2019-05-07T06:26:26.656Z,16.40
2019-05-07T06:28:58.459Z,15.90
2019-05-07T06:31:30.096Z,15.40
2019-05-07T06:34:01.976Z,14.80
2019-05-07T06:36:35.805Z,14.70
2019-05-07T06:39:18.098Z,14.30
2019-05-07T06:42:07.003Z,13.50
2019-05-07T06:44:38.986Z,12.60
2019-05-07T06:47:10.353Z,11.70
2019-05-07T06:49:42.875Z,11.20
2019-05-07T06:52:14.974Z,11.70
2019-05-07T06:54:46.749Z,12.90
2019-05-07T06:57:18.825Z,13.30
2019-05-07T06:59:53.879Z,13.10
2019-05-07T07:02:53.520Z,13.00
2019-05-07T07:05:42.837Z,13.20
2019-05-07T07:08:26.277Z,13.20
2019-05-07T07:11:13.484Z,12.80
2019-05-07T07:13:44.569Z,12.50
2019-05-07T07:16:16.406Z,12.80
2019-05-07T07:18:52.404Z,13.50
2019-05-07T07:21:22.050Z,14.30
2019-05-07T07:23:54.218Z,14.50
2019-05-07T07:26:25.822Z,14.10
2019-05-07T07:28:57.924Z,13.80
2019-05-07T07:31:36.745Z,14.10
2019-05-07T07:34:08.616Z,14.60
2019-05-07T07:37:09.785Z,14.30
2019-05-07T07:39:39.140Z,13.80
2019-05-07T07:42:12.411Z,13.30
2019-05-07T07:44:44.146Z,13.10
2019-05-07T07:47:16.198Z,13.40
2019-05-07T07:49:47.906Z,13.70
2019-05-07T07:52:20.260Z,14.30
2019-05-07T07:54:52.936Z,14.80
2019-05-07T07:57:43.705Z,15.20
2019-05-07T08:00:34.600Z,15.30
2019-05-07T08:03:07.765Z,15.50
2019-05-07T08:05:42.734Z,15.50
2019-05-07T08:08:14.498Z,15.10
2019-05-07T08:10:46.523Z,14.90
2019-05-07T08:13:18.447Z,14.80
2019-05-07T08:15:51.938Z,14.60
2019-05-07T08:18:23.164Z,14.50
2019-05-07T08:20:55.072Z,14.80
2019-05-07T08:23:26.598Z,15.00
2019-05-07T08:25:58.443Z,15.20
2019-05-07T08:28:31.954Z,15.60
2019-05-07T08:31:27.432Z,15.80
2019-05-07T08:34:14.257Z,15.80
2019-05-07T08:36:47.057Z,16.00
2019-05-07T08:39:18.404Z,15.90
2019-05-07T08:41:49.876Z,16.20
2019-05-07T08:44:24.357Z,16.50
2019-05-07T08:47:22.670Z,16.50
2019-05-07T08:49:54.051Z,16.50
2019-05-07T08:52:26.270Z,16.80
2019-05-07T08:54:58.119Z,17.30
2019-05-07T08:57:31.695Z,17.80
2019-05-07T09:00:04.664Z,18.30
2019-05-07T09:02:37.316Z,18.70
2019-05-07T09:05:09.380Z,18.00
2019-05-07T09:07:42.579Z,17.50
2019-05-07T09:10:14.536Z,17.70
2019-05-07T09:12:46.284Z,17.80
2019-05-07T09:15:18.017Z,17.90
2019-05-07T09:17:49.331Z,17.50
2019-05-07T09:20:22.837Z,16.60
2019-05-07T09:22:54.977Z,16.10
2019-05-07T09:25:26.602Z,16.20
2019-05-07T09:27:58.176Z,16.80
2019-05-07T09:30:52.485Z,17.30
2019-05-07T09:33:43.371Z,17.80
2019-05-07T09:36:22.728Z,18.20
2019-05-07T09:38:58.895Z,17.90
2019-05-07T09:41:28.954Z,18.20
2019-05-07T09:44:03.166Z,17.80
2019-05-07T09:46:34.924Z,17.70
2019-05-07T09:49:06.545Z,17.70
2019-05-07T09:51:38.264Z,18.00
2019-05-07T09:54:10.117Z,18.30
2019-05-07T09:56:42.238Z,18.60
2019-05-07T09:59:13.833Z,18.90
2019-05-07T10:01:45.348Z,19.30
2019-05-07T10:04:18.308Z,19.60
2019-05-07T10:06:51.781Z,19.30
2019-05-07T10:09:23.223Z,19.00
2019-05-07T10:12:06.600Z,18.10
2019-05-07T10:14:38.775Z,16.80
2019-05-07T10:17:25.458Z,16.10
2019-05-07T10:19:57.790Z,15.70
2019-05-07T10:22:32.168Z,15.50
2019-05-07T10:25:03.731Z,15.60
2019-05-07T10:27:35.219Z,15.60
2019-05-07T10:30:06.966Z,15.80
2019-05-07T10:32:38.799Z,16.00
2019-05-07T10:35:12.438Z,16.50
2019-05-07T10:37:43.376Z,16.80
2019-05-07T10:40:15.466Z,16.80
2019-05-07T10:42:47.128Z,16.40
2019-05-07T10:45:29.440Z,16.10
2019-05-07T10:48:12.523Z,15.90
2019-05-07T10:50:46.333Z,15.80
2019-05-07T10:53:18.086Z,15.90
2019-05-07T10:55:50.263Z,15.90
2019-05-07T10:58:21.548Z,16.20
2019-05-07T11:00:52.936Z,16.20
2019-05-07T11:03:24.282Z,16.10
2019-05-07T11:05:55.619Z,16.30
2019-05-07T11:08:27.652Z,16.00
2019-05-07T11:10:58.632Z,15.90
2019-05-07T11:13:30.472Z,15.70
2019-05-07T11:16:08.482Z,15.70
2019-05-07T11:18:51.758Z,15.80
2019-05-07T11:21:33.639Z,15.60
2019-05-07T11:24:05.469Z,15.80
2019-05-07T11:26:37.235Z,15.90
2019-05-07T11:29:08.856Z,16.00
2019-05-07T11:31:42.281Z,16.00
2019-05-07T11:34:14.187Z,15.80
2019-05-07T11:36:46.609Z,15.30
2019-05-07T11:39:18.127Z,15.00
2019-05-07T11:42:12.617Z,14.90
2019-05-07T11:44:44.457Z,15.10
2019-05-07T11:47:25.700Z,15.00
2019-05-07T11:50:18.661Z,14.60
2019-05-07T11:52:59.430Z,14.30
2019-05-07T11:55:30.981Z,14.50
2019-05-07T11:58:02.527Z,14.60
2019-05-07T12:00:42.842Z,14.50
2019-05-07T12:03:15.428Z,14.50
2019-05-07T12:05:47.001Z,14.60
2019-05-07T12:08:18.850Z,14.50
2019-05-07T12:10:51.843Z,14.80
2019-05-07T12:13:24.251Z,15.10
2019-05-07T12:15:56.199Z,15.40
2019-05-07T12:18:28.471Z,15.40
2019-05-07T12:21:03.863Z,15.40
2019-05-07T12:23:33.684Z,15.30
2019-05-07T12:26:05.381Z,15.20
2019-05-07T12:28:37.360Z,15.20
2019-05-07T12:31:26.814Z,15.10
2019-05-07T12:34:25.896Z,14.90
2019-05-07T12:36:57.679Z,14.80
2019-05-07T12:39:31.693Z,14.90
2019-05-07T12:42:03.597Z,15.00
2019-05-07T12:44:35.396Z,14.90
2019-05-07T12:47:07.152Z,14.90
2019-05-07T12:49:38.706Z,14.80
2019-05-07T12:52:16.604Z,14.60
2019-05-07T12:55:18.492Z,14.20
2019-05-07T12:57:51.928Z,14.10
2019-05-07T13:01:00.689Z,14.10
2019-05-07T13:03:42.780Z,13.80
2019-05-07T13:06:14.524Z,13.50
2019-05-07T13:08:46.588Z,13.20
2019-05-07T13:11:18.111Z,13.20
2019-05-07T13:13:49.688Z,13.30
2019-05-07T13:16:22.072Z,13.40
2019-05-07T13:18:53.441Z,13.40
2019-05-07T13:21:24.429Z,13.50
2019-05-07T13:23:55.734Z,13.50
2019-05-07T13:26:27.748Z,13.30
2019-05-07T13:28:59.252Z,13.20
2019-05-07T13:31:34.658Z,13.20
2019-05-07T13:34:06.746Z,13.20
2019-05-07T13:36:42.553Z,13.10
2019-05-07T13:39:23.494Z,12.90
2019-05-07T13:42:14.053Z,12.80
2019-05-07T13:44:54.616Z,12.70
2019-05-07T13:47:35.021Z,12.70
2019-05-07T13:50:08.054Z,12.80
2019-05-07T13:52:40.188Z,13.10
2019-05-07T13:55:12.884Z,13.40
2019-05-07T13:57:45.139Z,13.60
2019-05-07T14:00:24.524Z,13.60
2019-05-07T14:02:56.355Z,13.70
2019-05-07T14:05:27.932Z,13.70
2019-05-07T14:07:59.665Z,13.70
2019-05-07T14:10:33.709Z,13.60
2019-05-07T14:13:11.173Z,13.70
2019-05-07T14:15:40.247Z,13.70
2019-05-07T14:18:11.662Z,13.80
2019-05-07T14:20:42.975Z,13.80
2019-05-07T14:23:14.524Z,13.90
2019-05-07T14:25:46.505Z,14.20
2019-05-07T14:28:18.387Z,14.20
2019-05-07T14:30:52.205Z,14.40
2019-05-07T14:33:41.125Z,14.50
2019-05-07T14:36:19.333Z,14.60
2019-05-07T14:38:52.000Z,14.50
2019-05-07T14:41:25.783Z,14.40
2019-05-07T14:44:03.459Z,14.30
2019-05-07T14:46:49.765Z,14.10
2019-05-07T14:49:09.346Z,14.00
2019-05-07T14:51:41.103Z,13.80
2019-05-07T14:54:12.441Z,13.50
2019-05-07T14:56:44.015Z,13.40
2019-05-07T14:59:16.318Z,13.30
2019-05-07T15:01:48.800Z,13.10
2019-05-07T15:04:22.039Z,12.90
2019-05-07T15:06:53.060Z,12.80
2019-05-07T15:09:24.982Z,12.80
2019-05-07T15:11:56.632Z,12.60
2019-05-07T15:14:28.371Z,12.50
2019-05-07T15:17:04.586Z,12.50
2019-05-07T15:19:37.056Z,12.50
2019-05-07T15:22:27.159Z,12.50
2019-05-07T15:24:59.158Z,12.50
2019-05-07T15:27:32.318Z,12.60
2019-05-07T15:30:05.498Z,12.70
2019-05-07T15:32:37.072Z,12.80
2019-05-07T15:35:09.021Z,12.80
2019-05-07T15:37:42.561Z,12.80
2019-05-07T15:40:14.673Z,13.00
2019-05-07T15:42:46.860Z,13.10
2019-05-07T15:45:18.853Z,13.20
2019-05-07T15:47:53.315Z,13.30
2019-05-07T15:50:28.868Z,13.30
2019-05-07T15:53:09.833Z,13.30
2019-05-07T15:55:41.854Z,13.40
2019-05-07T15:58:13.087Z,13.20
2019-05-07T16:00:44.090Z,13.10
2019-05-07T16:03:32.030Z,13.00
2019-05-07T16:06:03.936Z,13.10
2019-05-07T16:08:42.515Z,13.10
2019-05-07T16:11:15.648Z,13.00
2019-05-07T16:13:53.285Z,12.80
2019-05-07T16:16:24.580Z,12.70
2019-05-07T16:19:06.012Z,12.80
2019-05-07T16:21:38.163Z,12.70
2019-05-07T16:24:11.970Z,12.60
2019-05-07T16:26:44.227Z,12.30
2019-05-07T16:29:16.363Z,12.20
2019-05-07T16:31:48.876Z,12.00
2019-05-07T16:34:21.982Z,12.00
2019-05-07T16:36:54.015Z,12.00
2019-05-07T16:39:25.003Z,12.00
2019-05-07T16:41:56.834Z,11.90
2019-05-07T16:44:28.177Z,11.90
2019-05-07T16:46:59.850Z,11.90
2019-05-07T16:49:31.968Z,11.90
2019-05-07T16:52:03.844Z,11.90
2019-05-07T16:54:35.190Z,12.00
2019-05-07T16:57:31.788Z,12.00
2019-05-07T17:00:04.661Z,11.90
2019-05-07T17:02:42.452Z,12.00
2019-05-07T17:05:15.086Z,12.00
2019-05-07T17:07:55.010Z,11.90
2019-05-07T17:10:26.253Z,11.90
2019-05-07T17:12:57.912Z,11.90
2019-05-07T17:15:29.345Z,11.80
2019-05-07T17:18:02.528Z,11.70
2019-05-07T17:20:35.202Z,11.70
2019-05-07T17:23:06.705Z,11.80
2019-05-07T17:25:38.573Z,11.80
2019-05-07T17:28:12.447Z,11.70
2019-05-07T17:30:43.286Z,11.70
2019-05-07T17:33:14.647Z,11.70
2019-05-07T17:35:46.302Z,11.80
2019-05-07T17:38:18.777Z,11.80
2019-05-07T17:40:51.965Z,11.80
2019-05-07T17:43:22.835Z,11.70
2019-05-07T17:45:54.316Z,11.70
2019-05-07T17:48:25.597Z,11.70
2019-05-07T17:51:24.887Z,11.60
2019-05-07T17:54:00.130Z,11.60
2019-05-07T17:56:32.073Z,11.50
2019-05-07T17:59:04.140Z,11.40
2019-05-07T18:01:58.154Z,11.20
2019-05-07T18:04:46.677Z,11.10
2019-05-07T18:07:06.429Z,11.10
2019-05-07T18:09:37.768Z,11.10
2019-05-07T18:12:11.908Z,11.10
2019-05-07T18:14:43.021Z,11.00
2019-05-07T18:17:29.065Z,10.90
2019-05-07T18:20:02.494Z,10.90
2019-05-07T18:22:35.909Z,10.80
2019-05-07T18:25:07.200Z,10.80
2019-05-07T18:27:39.013Z,10.80
2019-05-07T18:30:12.723Z,10.80
2019-05-07T18:32:48.071Z,10.80
2019-05-07T18:35:20.033Z,10.60
2019-05-07T18:37:52.813Z,10.60
2019-05-07T18:40:24.973Z,10.50
2019-05-07T18:42:56.049Z,10.60
2019-05-07T18:45:27.967Z,10.50
2019-05-07T18:47:59.626Z,10.50
2019-05-07T18:50:32.595Z,10.30
2019-05-07T18:53:03.586Z,10.40
2019-05-07T18:55:35.426Z,10.30
2019-05-07T18:58:08.552Z,10.20
2019-05-07T19:00:43.585Z,10.20
2019-05-07T19:03:14.906Z,10.30
2019-05-07T19:05:46.231Z,10.20
2019-05-07T19:08:18.141Z,10.10
2019-05-07T19:10:52.037Z,9.90
2019-05-07T19:13:23.645Z,9.90
2019-05-07T19:15:56.648Z,9.80
2019-05-07T19:18:28.497Z,9.80
2019-05-07T19:21:00.675Z,9.70
2019-05-07T19:23:33.110Z,9.70
2019-05-07T19:26:04.739Z,9.80
2019-05-07T19:28:36.119Z,9.80
2019-05-07T19:31:07.898Z,9.90
2019-05-07T19:33:39.238Z,9.80
2019-05-07T19:36:11.078Z,9.70
2019-05-07T19:38:42.570Z,9.70
2019-05-07T19:41:14.514Z,9.60
2019-05-07T19:43:45.807Z,9.50
2019-05-07T19:46:17.641Z,9.50
2019-05-07T19:48:49.569Z,9.50
2019-05-07T19:51:21.443Z,9.40
2019-05-07T19:53:53.412Z,9.40
2019-05-07T19:56:25.535Z,9.30
2019-05-07T19:58:56.643Z,9.30
2019-05-07T20:01:33.086Z,9.30
2019-05-07T20:04:04.838Z,9.30
2019-05-07T20:06:36.560Z,9.20
2019-05-07T20:09:14.842Z,9.20
2019-05-07T20:11:46.962Z,9.10
2019-05-07T20:14:22.126Z,9.10
2019-05-07T20:16:53.326Z,9.00
2019-05-07T20:19:25.099Z,9.00
2019-05-07T20:21:57.913Z,9.00
2019-05-07T20:24:29.840Z,9.00
2019-05-07T20:27:03.033Z,8.90
2019-05-07T20:29:34.821Z,8.90
2019-05-07T20:32:07.129Z,8.80
2019-05-07T20:34:39.102Z,8.80
2019-05-07T20:37:12.725Z,8.80
2019-05-07T20:39:44.369Z,8.70
2019-05-07T20:42:15.699Z,8.50
2019-05-07T20:44:47.001Z,8.50
2019-05-07T20:47:18.953Z,8.50
2019-05-07T20:49:50.978Z,8.50
2019-05-07T20:52:23.040Z,8.50
2019-05-07T20:55:09.651Z,8.40
2019-05-07T20:57:42.852Z,8.40
2019-05-07T21:00:25.568Z,8.30
2019-05-07T21:03:14.736Z,8.30
2019-05-07T21:05:46.399Z,8.30
2019-05-07T21:08:18.893Z,8.30
2019-05-07T21:10:50.498Z,8.30
2019-05-07T21:13:28.506Z,8.30
2019-05-07T21:15:55.057Z,8.30
2019-05-07T21:18:26.898Z,8.30
2019-05-07T21:20:58.246Z,8.40
2019-05-07T21:23:32.450Z,8.40
2019-05-07T21:26:04.153Z,8.40
2019-05-07T21:28:36.099Z,8.40
2019-05-07T21:31:07.751Z,8.40
2019-05-07T21:33:39.747Z,8.30
2019-05-07T21:36:12.290Z,8.30
2019-05-07T21:38:43.417Z,8.40
2019-05-07T21:41:15.661Z,8.30
2019-05-07T21:43:46.644Z,8.20
2019-05-07T21:46:18.852Z,8.10
2019-05-07T21:48:53.395Z,8.10
2019-05-07T21:51:24.368Z,8.00
2019-05-07T21:54:03.672Z,8.00
2019-05-07T21:57:13.126Z,7.90
2019-05-07T21:59:45.483Z,7.80
2019-05-07T22:02:22.045Z,7.70
2019-05-07T22:04:53.568Z,7.70
2019-05-07T22:07:25.526Z,7.70
2019-05-07T22:09:57.151Z,7.70
2019-05-07T22:12:28.494Z,7.60
2019-05-07T22:14:59.730Z,7.60
2019-05-07T22:17:30.980Z,7.50
2019-05-07T22:20:03.124Z,7.50
2019-05-07T22:22:35.087Z,7.40
2019-05-07T22:25:06.729Z,7.40
2019-05-07T22:27:39.465Z,7.40
2019-05-07T22:30:12.777Z,7.20
2019-05-07T22:32:52.672Z,7.10
2019-05-07T22:35:30.722Z,7.00
2019-05-07T22:38:22.694Z,6.90
2019-05-07T22:40:54.198Z,6.80
2019-05-07T22:43:27.342Z,6.80
2019-05-07T22:45:59.229Z,6.70
2019-05-07T22:48:32.432Z,6.60
2019-05-07T22:51:03.960Z,6.60
2019-05-07T22:53:36.561Z,6.60
2019-05-07T22:56:08.392Z,6.60
2019-05-07T22:58:44.899Z,6.50
2019-05-07T23:01:16.222Z,6.50
2019-05-07T23:03:48.000Z,6.50
2019-05-07T23:06:19.808Z,6.40
2019-05-07T23:08:53.000Z,6.40
2019-05-07T23:11:24.009Z,6.30
2019-05-07T23:13:55.935Z,6.20
2019-05-07T23:16:27.478Z,6.20
2019-05-07T23:19:00.063Z,6.20
2019-05-07T23:21:31.987Z,6.10
2019-05-07T23:24:03.990Z,6.10
2019-05-07T23:26:47.416Z,6.00
2019-05-07T23:29:09.111Z,6.00
2019-05-07T23:31:40.878Z,6.00
2019-05-07T23:34:12.583Z,5.90
2019-05-07T23:36:43.967Z,5.90
2019-05-07T23:39:17.327Z,5.90
2019-05-07T23:41:56.726Z,5.80
2019-05-07T23:44:28.353Z,5.70
2019-05-07T23:46:59.331Z,5.70
2019-05-07T23:49:32.248Z,5.70
2019-05-07T23:52:03.960Z,5.60
2019-05-07T23:54:35.901Z,5.60
2019-05-07T23:57:09.907Z,5.50
2019-05-07T23:59:42.204Z,5.40
